createdAt,value
2022-08-22T00:01:41.592Z,100655.59
2022-08-22T00:02:54.798Z,100626.88
2022-08-22T00:05:10.961Z,100654.34
2022-08-22T00:08:58.841Z,100652.03
2022-08-22T00:12:42.073Z,100654.16
2022-08-22T00:15:51.205Z,100655.09
2022-08-22T00:19:17.185Z,100652.34
2022-08-22T00:22:40.328Z,100648.75
2022-08-22T00:26:15.502Z,100652.03
2022-08-22T00:29:25.956Z,100659.06
2022-08-22T00:32:38.630Z,100665.22
2022-08-22T00:35:47.331Z,100660.63
2022-08-22T00:39:03.102Z,100657.97
2022-08-22T00:42:08.162Z,100660.03
2022-08-22T00:45:30.014Z,100658.16
2022-08-22T00:49:03.182Z,100662.72
2022-08-22T00:52:24.165Z,100668.53
2022-08-22T00:55:48.433Z,100652.34
2022-08-22T00:59:27.640Z,100655.94
2022-08-22T01:03:13.485Z,100656.38
2022-08-22T01:06:52.812Z,100658.59
2022-08-22T01:10:32.238Z,100652.56
2022-08-22T01:14:13.008Z,100654.13
2022-08-22T01:17:20.206Z,100648.97
2022-08-22T01:20:38.022Z,100649.56
2022-08-22T01:24:04.205Z,100648.22
2022-08-22T01:27:45.230Z,100642.63
2022-08-22T01:31:25.857Z,100647.28
2022-08-22T01:34:45.922Z,100653.78
2022-08-22T01:38:05.702Z,100651.91
2022-08-22T01:41:37.725Z,100649.72
2022-08-22T01:44:51.412Z,100643.69
2022-08-22T01:48:12.038Z,100638.91
2022-08-22T01:51:43.171Z,100646.84
2022-08-22T01:54:49.718Z,100656.56
2022-08-22T01:58:01.129Z,100648.91
2022-08-22T02:01:36.313Z,100644.81
2022-08-22T02:05:23.103Z,100639.06
2022-08-22T02:08:37.625Z,100645.22
2022-08-22T02:12:22.509Z,100651.38
2022-08-22T02:15:35.653Z,100653.06
2022-08-22T02:18:52.670Z,100648.94
2022-08-22T02:22:07.546Z,100648.13
2022-08-22T02:25:25.638Z,100644.03
2022-08-22T02:29:01.414Z,100646.47
2022-08-22T02:32:08.150Z,100646.47
2022-08-22T02:35:12.940Z,100636.06
2022-08-22T02:38:43.055Z,100649.63
2022-08-22T02:41:53.595Z,100641.94
2022-08-22T02:45:26.347Z,100649.91
2022-08-22T02:48:48.002Z,100655.41
2022-08-22T02:52:21.191Z,100653.22
2022-08-22T02:55:46.366Z,100646.22
2022-08-22T02:59:12.405Z,100646.38
2022-08-22T03:02:39.554Z,100648.44
2022-08-22T03:05:52.302Z,100647.09
2022-08-22T03:09:22.033Z,100646.81
2022-08-22T03:12:48.050Z,100642.41
2022-08-22T03:15:58.834Z,100645.44
2022-08-22T03:19:06.405Z,100640.91
2022-08-22T03:22:23.641Z,100634.88
2022-08-22T03:25:25.240Z,100643.50
2022-08-22T03:28:59.493Z,100632.00
2022-08-22T03:32:15.611Z,100634.47
2022-08-22T03:35:50.871Z,100630.78
2022-08-22T03:39:25.043Z,100626.56
2022-08-22T03:42:53.816Z,100627.63
2022-08-22T03:46:33.939Z,100626.81
2022-08-22T03:49:41.511Z,100629.72
2022-08-22T03:53:19.305Z,100629.31
2022-08-22T03:56:45.931Z,100626.03
2022-08-22T04:00:19.681Z,100632.22
2022-08-22T04:03:55.260Z,100628.38
2022-08-22T04:06:56.991Z,100629.34
2022-08-22T04:10:25.442Z,100628.81
2022-08-22T04:13:48.789Z,100644.69
2022-08-22T04:17:17.854Z,100643.34
2022-08-22T04:20:50.403Z,100648.81
2022-08-22T04:23:57.889Z,100659.22
2022-08-22T04:27:02.406Z,100661.16
2022-08-22T04:30:32.594Z,100668.28
2022-08-22T04:33:46.426Z,100671.00
2022-08-22T04:36:57.965Z,100672.66
2022-08-22T04:40:29.034Z,100669.50
2022-08-22T04:43:41.085Z,100678.97
2022-08-22T04:47:20.930Z,100678.69
2022-08-22T04:50:29.678Z,100680.31
2022-08-22T04:53:54.048Z,100683.47
2022-08-22T04:57:14.570Z,100683.31
2022-08-22T05:00:17.098Z,100682.09
2022-08-22T05:03:24.355Z,100690.72
2022-08-22T05:06:30.513Z,100689.59
2022-08-22T05:09:37.509Z,100689.31
2022-08-22T05:13:02.276Z,100686.47
2022-08-22T05:16:09.017Z,100687.81
2022-08-22T05:19:22.987Z,100682.19
2022-08-22T05:22:34.541Z,100700.53
2022-08-22T05:25:40.662Z,100688.19
2022-08-22T05:28:53.380Z,100696.28
2022-08-22T05:32:05.783Z,100684.34
2022-08-22T05:35:09.926Z,100686.66
2022-08-22T05:38:16.023Z,100685.69
2022-08-22T05:41:23.858Z,100687.03
2022-08-22T05:44:37.613Z,100693.63
2022-08-22T05:47:47.029Z,100693.19
2022-08-22T05:51:14.977Z,100685.94
2022-08-22T05:54:21.716Z,100700.16
2022-08-22T05:57:40.747Z,100694.81
2022-08-22T06:00:47.981Z,100693.84
2022-08-22T06:04:25.810Z,100693.59
2022-08-22T06:07:27.567Z,100699.00
2022-08-22T06:10:49.690Z,100695.97
2022-08-22T06:13:57.948Z,100698.84
2022-08-22T06:17:26.649Z,100700.72
2022-08-22T06:20:52.648Z,100695.22
2022-08-22T06:23:58.808Z,100696.56
2022-08-22T06:27:09.135Z,100702.16
2022-08-22T06:30:14.904Z,100698.84
2022-08-22T06:33:21.868Z,100697.28
2022-08-22T06:36:32.289Z,100704.66
2022-08-22T06:39:42.096Z,100701.47
2022-08-22T06:42:51.926Z,100707.72
2022-08-22T06:45:53.833Z,100710.72
2022-08-22T06:48:57.740Z,100715.19
2022-08-22T06:52:07.287Z,100706.59
2022-08-22T06:55:10.212Z,100709.31
2022-08-22T06:58:20.551Z,100711.03
2022-08-22T07:01:27.367Z,100716.63
2022-08-22T07:04:30.186Z,100716.72
2022-08-22T07:07:32.193Z,100726.22
2022-08-22T07:10:34.679Z,100727.25
2022-08-22T07:13:39.189Z,100724.06
2022-08-22T07:17:09.634Z,100727.69
2022-08-22T07:20:28.551Z,100720.91
2022-08-22T07:23:39.921Z,100728.09
2022-08-22T07:26:57.041Z,100723.91
2022-08-22T07:30:12.944Z,100729.34
2022-08-22T07:33:33.673Z,100725.28
2022-08-22T07:36:56.600Z,100733.16
2022-08-22T07:40:24.166Z,100737.28
2022-08-22T07:43:39.281Z,100738.88
2022-08-22T07:47:13.383Z,100736.13
2022-08-22T07:50:22.948Z,100745.50
2022-08-22T07:54:11.500Z,100740.94
2022-08-22T07:57:15.758Z,100737.53
2022-08-22T08:00:21.269Z,100733.44
2022-08-22T08:03:26.080Z,100737.06
2022-08-22T08:06:28.499Z,100732.50
2022-08-22T08:09:34.246Z,100735.16
2022-08-22T08:12:57.938Z,100734.53
2022-08-22T08:16:09.173Z,100731.44
2022-08-22T08:19:12.991Z,100735.22
2022-08-22T08:22:18.919Z,100732.25
2022-08-22T08:25:26.158Z,100741.56
2022-08-22T08:28:38.097Z,100732.38
2022-08-22T08:31:43.361Z,100726.31
2022-08-22T08:34:47.096Z,100732.03
2022-08-22T08:38:07.903Z,100727.38
2022-08-22T08:41:47.228Z,100720.97
2022-08-22T08:45:28.898Z,100717.00
2022-08-22T08:48:48.025Z,100727.28
2022-08-22T08:52:24.487Z,100717.22
2022-08-22T08:55:39.504Z,100714.19
2022-08-22T08:58:54.721Z,100717.88
2022-08-22T09:06:43.441Z,100706.16
2022-08-22T09:10:19.066Z,100704.50
2022-08-22T09:13:41.939Z,100707.00
2022-08-22T09:17:02.673Z,100703.84
2022-08-22T09:20:23.031Z,100705.63
2022-08-22T09:23:57.372Z,100707.09
2022-08-22T09:27:08.703Z,100707.63
2022-08-22T09:30:19.816Z,100702.28
2022-08-22T09:33:55.864Z,100697.81
2022-08-22T09:37:22.757Z,100688.69
2022-08-22T09:40:15.948Z,100719.28
2022-08-22T09:40:34.329Z,100689.81
2022-08-22T09:43:57.155Z,100680.81
2022-08-22T09:47:06.769Z,100689.91
2022-08-22T09:50:21.032Z,100691.34
2022-08-22T09:53:45.321Z,100677.69
2022-08-22T09:57:13.985Z,100678.63
2022-08-22T10:00:22.861Z,100676.69
2022-08-22T10:03:45.738Z,100675.13
2022-08-22T10:07:13.421Z,100665.66
2022-08-22T10:10:34.111Z,100662.28
2022-08-22T10:14:13.283Z,100660.28
2022-08-22T10:17:22.387Z,100660.38
2022-08-22T10:20:58.376Z,100652.06
2022-08-22T10:24:28.419Z,100656.78
2022-08-22T10:27:32.558Z,100651.50
2022-08-22T10:31:09.434Z,100652.91
2022-08-22T10:34:20.165Z,100650.44
2022-08-22T10:37:33.062Z,100650.13
2022-08-22T10:40:57.072Z,100646.16
2022-08-22T10:44:22.240Z,100648.00
2022-08-22T10:47:35.670Z,100644.66
2022-08-22T10:51:12.686Z,100643.72
2022-08-22T10:54:45.453Z,100642.56
2022-08-22T10:58:09.694Z,100638.81
2022-08-22T11:01:38.020Z,100642.81
2022-08-22T11:05:15.274Z,100641.84
2022-08-22T11:08:29.034Z,100639.88
2022-08-22T11:11:37.219Z,100639.63
2022-08-22T11:14:48.343Z,100638.56
2022-08-22T11:18:27.686Z,100633.84
2022-08-22T11:22:10.139Z,100627.13
2022-08-22T11:25:44.451Z,100621.03
2022-08-22T11:29:24.049Z,100619.28
2022-08-22T11:32:43.562Z,100625.97
2022-08-22T11:36:12.087Z,100623.13
2022-08-22T11:39:45.464Z,100622.09
2022-08-22T11:43:18.313Z,100620.25
2022-08-22T11:46:35.748Z,100616.44
2022-08-22T11:49:51.681Z,100618.00
2022-08-22T11:53:14.923Z,100612.91
2022-08-22T11:56:22.549Z,100613.97
2022-08-22T11:59:53.482Z,100608.50
2022-08-22T12:03:23.174Z,100615.50
2022-08-22T12:06:46.777Z,100619.38
2022-08-22T12:10:19.521Z,100616.56
2022-08-22T12:14:06.086Z,100613.09
2022-08-22T12:17:55.729Z,100616.69
2022-08-22T12:21:40.902Z,100608.03
2022-08-22T12:25:05.489Z,100613.38
2022-08-22T12:28:26.039Z,100599.56
2022-08-22T12:31:48.549Z,100597.53
2022-08-22T12:35:13.958Z,100595.53
2022-08-22T12:38:51.581Z,100592.34
2022-08-22T12:42:26.060Z,100581.31
2022-08-22T12:45:35.299Z,100575.44
2022-08-22T12:48:42.129Z,100581.34
2022-08-22T12:52:12.106Z,100575.06
2022-08-22T12:55:37.940Z,100579.94
2022-08-22T12:59:17.927Z,100567.06
2022-08-22T13:02:27.882Z,100571.00
2022-08-22T13:05:34.358Z,100563.44
2022-08-22T13:08:45.542Z,100565.88
2022-08-22T13:11:55.083Z,100552.66
2022-08-22T13:15:23.060Z,100557.25
2022-08-22T13:18:31.201Z,100560.22
2022-08-22T13:21:37.371Z,100553.72
2022-08-22T13:24:51.690Z,100549.88
2022-08-22T13:28:00.173Z,100544.06
2022-08-22T13:31:03.818Z,100544.41
2022-08-22T13:34:20.463Z,100543.66
2022-08-22T13:37:50.208Z,100546.09
2022-08-22T13:40:53.220Z,100545.84
2022-08-22T13:44:22.221Z,100539.50
2022-08-22T13:47:27.889Z,100535.13
2022-08-22T13:50:53.584Z,100530.78
2022-08-22T13:54:20.457Z,100540.75
2022-08-22T13:57:44.819Z,100534.19
2022-08-22T14:01:31.197Z,100529.75
2022-08-22T14:04:43.016Z,100529.06
2022-08-22T14:08:12.529Z,100531.69
2022-08-22T14:11:51.209Z,100520.25
2022-08-22T14:15:02.094Z,100521.72
2022-08-22T14:18:13.920Z,100524.41
2022-08-22T14:21:16.649Z,100520.13
2022-08-22T14:24:56.620Z,100529.78
2022-08-22T14:28:06.426Z,100520.19
2022-08-22T14:31:14.327Z,100515.69
2022-08-22T14:34:16.589Z,100519.78
2022-08-22T14:37:40.958Z,100516.09
2022-08-22T14:40:44.988Z,100520.13
2022-08-22T14:44:04.999Z,100512.63
2022-08-22T14:47:54.122Z,100515.56
2022-08-22T14:50:44.002Z,100509.16
2022-08-22T14:53:46.467Z,100505.94
2022-08-22T14:56:51.852Z,100506.50
2022-08-22T14:59:53.659Z,100499.22
2022-08-22T15:03:10.853Z,100499.75
2022-08-22T15:06:29.944Z,100498.66
2022-08-22T15:09:52.125Z,100491.19
2022-08-22T15:12:58.938Z,100496.00
2022-08-22T15:16:14.248Z,100493.63
2022-08-22T15:19:32.810Z,100491.19
2022-08-22T15:22:35.763Z,100495.19
2022-08-22T15:25:43.272Z,100489.31
2022-08-22T15:29:22.235Z,100485.84
2022-08-22T15:32:31.568Z,100482.63
2022-08-22T15:35:38.993Z,100478.63
2022-08-22T15:38:51.364Z,100475.66
2022-08-22T15:41:55.430Z,100469.75
2022-08-22T15:44:58.731Z,100475.13
2022-08-22T15:48:04.483Z,100475.38
2022-08-22T15:51:33.306Z,100476.97
2022-08-22T15:54:51.034Z,100469.75
2022-08-22T15:58:20.728Z,100471.66
2022-08-22T16:01:24.922Z,100464.63
2022-08-22T16:04:49.350Z,100464.13
2022-08-22T16:07:56.975Z,100464.38
2022-08-22T16:11:01.915Z,100449.09
2022-08-22T16:14:33.238Z,100455.56
2022-08-22T16:17:44.419Z,100451.78
2022-08-22T16:20:53.345Z,100454.22
2022-08-22T16:23:58.430Z,100451.25
2022-08-22T16:27:18.430Z,100455.00
2022-08-22T16:30:33.357Z,100448.50
2022-08-22T16:33:40.325Z,100443.13
2022-08-22T16:36:51.827Z,100443.06
2022-08-22T16:40:09.524Z,100450.03
2022-08-22T16:43:19.669Z,100448.91
2022-08-22T16:46:33.246Z,100439.72
2022-08-22T16:49:59.824Z,100442.84
2022-08-22T16:53:21.707Z,100438.75
2022-08-22T16:56:30.027Z,100442.72
2022-08-22T16:59:54.072Z,100442.97
2022-08-22T17:03:14.876Z,100442.91
2022-08-22T17:06:54.349Z,100440.75
2022-08-22T17:10:02.197Z,100439.00
2022-08-22T17:13:09.754Z,100446.72
2022-08-22T17:16:53.889Z,100446.31
2022-08-22T17:20:08.309Z,100446.88
2022-08-22T17:23:54.833Z,100438.56
2022-08-22T17:27:05.869Z,100439.81
2022-08-22T17:30:12.551Z,100445.06
2022-08-22T17:33:52.282Z,100442.00
2022-08-22T17:37:06.041Z,100442.28
2022-08-22T17:40:38.403Z,100440.38
2022-08-22T17:43:59.029Z,100442.81
2022-08-22T17:47:08.534Z,100449.25
2022-08-22T17:50:13.238Z,100450.09
2022-08-22T17:53:17.988Z,100454.94
2022-08-22T17:57:00.466Z,100455.16
2022-08-22T18:00:31.908Z,100457.44
2022-08-22T18:03:37.919Z,100457.97
2022-08-22T18:06:56.285Z,100456.28
2022-08-22T18:10:26.413Z,100457.19
2022-08-22T18:13:36.786Z,100463.56
2022-08-22T18:16:48.674Z,100471.13
2022-08-22T18:19:57.777Z,100474.25
2022-08-22T18:23:21.716Z,100472.03
2022-08-22T18:27:00.023Z,100478.78
2022-08-22T18:30:24.703Z,100474.94
2022-08-22T18:33:40.329Z,100482.66
2022-08-22T18:37:03.730Z,100486.69
2022-08-22T18:40:13.718Z,100479.56
2022-08-22T18:43:34.945Z,100483.22
2022-08-22T18:46:44.097Z,100491.53
2022-08-22T18:49:48.921Z,100492.94
2022-08-22T18:52:53.476Z,100496.78
2022-08-22T18:56:12.360Z,100503.69
2022-08-22T18:59:38.873Z,100509.72
2022-08-22T19:03:17.253Z,100515.59
2022-08-22T19:06:40.644Z,100521.22
2022-08-22T19:10:03.969Z,100528.28
2022-08-22T19:13:43.401Z,100531.88
2022-08-22T19:17:16.231Z,100532.44
2022-08-22T19:20:46.152Z,100536.44
2022-08-22T19:23:50.463Z,100539.25
2022-08-22T19:27:07.317Z,100548.28
2022-08-22T19:30:48.920Z,100551.25
2022-08-22T19:34:16.501Z,100547.97
2022-08-22T19:37:31.753Z,100551.56
2022-08-22T19:40:50.406Z,100545.50
2022-08-22T19:43:52.343Z,100544.69
2022-08-22T19:47:24.259Z,100548.78
2022-08-22T19:50:31.099Z,100550.75
2022-08-22T19:53:41.725Z,100555.22
2022-08-22T19:57:10.221Z,100557.66
2022-08-22T20:00:14.288Z,100557.03
2022-08-22T20:03:23.395Z,100567.22
2022-08-22T20:06:43.422Z,100568.03
2022-08-22T20:10:04.630Z,100575.13
2022-08-22T20:13:25.980Z,100570.84
2022-08-22T20:17:05.501Z,100570.66
2022-08-22T20:20:35.494Z,100572.91
2022-08-22T20:23:37.886Z,100570.09
2022-08-22T20:26:57.635Z,100567.25
2022-08-22T20:30:07.872Z,100567.25
2022-08-22T20:33:20.641Z,100568.72
2022-08-22T20:36:28.544Z,100569.69
2022-08-22T20:39:50.918Z,100578.00
2022-08-22T20:43:10.390Z,100575.94
2022-08-22T20:46:34.463Z,100574.22
2022-08-22T20:49:42.522Z,100569.50
2022-08-22T20:52:51.811Z,100570.09
2022-08-22T20:55:55.908Z,100568.25
2022-08-22T20:59:01.033Z,100565.84
2022-08-22T21:02:15.041Z,100570.66
2022-08-22T21:05:22.499Z,100571.41
2022-08-22T21:08:26.724Z,100571.56
2022-08-22T21:11:43.618Z,100567.84
2022-08-22T21:14:48.861Z,100571.50
2022-08-22T21:17:50.957Z,100576.50
2022-08-22T21:20:53.381Z,100575.22
2022-08-22T21:24:04.163Z,100577.44
2022-08-22T21:27:06.641Z,100576.97
2022-08-22T21:30:09.814Z,100578.97
2022-08-22T21:33:24.068Z,100581.19
2022-08-22T21:36:29.710Z,100585.56
2022-08-22T21:39:42.396Z,100590.38
2022-08-22T21:42:58.356Z,100591.56
2022-08-22T21:46:00.273Z,100593.56
2022-08-22T21:49:05.298Z,100593.94
2022-08-22T21:52:07.037Z,100597.09
2022-08-22T21:55:34.540Z,100598.28
2022-08-22T21:58:38.814Z,100593.41
2022-08-22T22:01:42.776Z,100593.69
2022-08-22T22:04:47.635Z,100591.50
2022-08-22T22:07:49.363Z,100592.97
2022-08-22T22:10:54.322Z,100599.88
2022-08-22T22:13:56.054Z,100601.31
2022-08-22T22:16:57.679Z,100599.91
2022-08-22T22:19:59.328Z,100597.56
2022-08-22T22:23:01.030Z,100600.41
2022-08-22T22:26:04.757Z,100594.06
2022-08-22T22:29:07.861Z,100599.03
2022-08-22T22:32:10.700Z,100599.56
2022-08-22T22:35:13.614Z,100596.75
2022-08-22T22:38:20.566Z,100599.31
2022-08-22T22:41:25.930Z,100599.44
2022-08-22T22:44:27.588Z,100592.31
2022-08-22T22:47:31.831Z,100600.28
2022-08-22T22:50:35.713Z,100596.97
2022-08-22T22:53:43.075Z,100600.19
2022-08-22T22:56:48.008Z,100594.78
2022-08-22T22:59:49.948Z,100597.56
2022-08-22T23:02:52.936Z,100596.59
2022-08-22T23:05:54.592Z,100601.84
2022-08-22T23:08:56.640Z,100602.94
2022-08-22T23:11:58.540Z,100595.69
2022-08-22T23:15:00.218Z,100597.31
2022-08-22T23:18:02.464Z,100598.13
2022-08-22T23:21:14.594Z,100595.50
2022-08-22T23:24:17.312Z,100600.56
2022-08-22T23:27:19.086Z,100607.00
2022-08-22T23:30:21.442Z,100605.19
2022-08-22T23:33:23.305Z,100606.63
2022-08-22T23:36:24.977Z,100608.63
2022-08-22T23:39:28.656Z,100605.03
2022-08-22T23:42:30.539Z,100617.34
2022-08-22T23:45:32.365Z,100613.88
2022-08-22T23:48:34.063Z,100617.53
2022-08-22T23:51:37.274Z,100614.88
2022-08-22T23:54:38.994Z,100618.53
2022-08-22T23:57:40.610Z,100611.81
